• Join FlightAware (Why Join?)
  • Login
  • US Flag 
04:21PM EDT


 

Airport Tracker/Info


-or-


 

Live Flight TrackerFlight Track Log ✈ RPA3869 ✈ 22-May-2013 ✈ KMYR - KEWR

Flight Track Log - Related Links

Times and Time Zones

All times are in EDT time to prevent confusion due to time zone crossing. See the RPA3869 flight status page for this flight to view local times or setup timezone preferences in your user account.

Time Position Orientation Groundspeed Altitude Reporting Facility
EDT Latitude Longitude Course Direction KTS MPH feet Rate Location/Type
12:34PM 33.6528 -78.8483 56° Northeast 228 262 3,600  Level Jacksonville Center
12:35PM 33.7078 -78.8083 31° Northeast 228 262 5,600 2,040 Climbing Jacksonville Center
12:36PM 33.9063 -78.5721 50° Northeast  Level FlightAware Approximate
12:36PM 33.7647 -78.7631 33° Northeast 233 268 7,700  Level Jacksonville Center
12:37PM 33.9568 -78.4748 64° Northeast  Level FlightAware Approximate
12:37PM 33.8175 -78.7181 35° Northeast 233 268 9,500  Level Jacksonville Center
12:38PM 34.0174 -78.3866 46° Northeast  Level FlightAware Approximate
12:38PM 33.8569 -78.6536 54° Northeast 233 268 11,200  Level Jacksonville Center
12:39PM 34.0679 -78.2975 59° Northeast  Level FlightAware Approximate
12:40PM 34.1242 -78.2232 56° Northeast  Level FlightAware Approximate
12:41PM 33.9442 -78.5181 52° Northeast 248 285 14,100  Level Washington Center
12:42PM 33.9897 -78.4497 51° Northeast 248 285 15,400 1,140 Climbing Washington Center
12:43PM 34.0411 -78.3861 46° Northeast 248 285 16,500 1,020 Climbing Washington Center
12:44PM 34.1147 -78.3636 14° North 248 285 17,500 900 Climbing Washington Center
12:45PM 34.1903 -78.3386 15° North 260 299 18,300 780 Climbing Washington Center
12:46PM 34.2683 -78.3086 18° North 278 320 19,100 780 Climbing Washington Center
12:47PM 34.3461 -78.2808 16° North 285 328 19,900 900 Climbing Washington Center
12:48PM 34.4219 -78.2506 18° North 285 328 20,900 900 Climbing Washington Center
12:49PM 34.4956 -78.2228 17° North 285 328 21,800 660 Climbing Washington Center
12:50PM 34.5733 -78.1950 16° North 285 328 22,300 600 Climbing Washington Center
12:51PM 34.6492 -78.1647 18° North 285 328 23,000 660 Climbing Washington Center
12:52PM 34.7269 -78.1342 18° North 285 328 23,600 480 Climbing Washington Center
12:53PM 34.8069 -78.1039 17° North 285 328 24,000 480 Climbing Washington Center
12:54PM 34.8931 -78.0711 17° North 285 328 24,600 480 Climbing Washington Center
12:55PM 34.9731 -78.0406 17° North 291 335 25,000 180 Climbing Washington Center
12:56PM 35.0572 -78.0075 18° North 296 341 25,000  Level Washington Center
12:57PM 35.1414 -77.9744 18° North 306 352 25,000  Level Washington Center
12:58PM 35.2317 -77.9392 18° North 325 374 25,000  Level Washington Center
12:59PM 35.3242 -77.9036 17° North 330 380 25,000  Level Washington Center
01:00PM 35.4167 -77.8681 17° North 335 386 25,000  Level Washington Center
01:01PM 35.5028 -77.8347 17° North 347 399 25,000  Level Washington Center
01:02PM 35.5953 -77.8017 16° North 342 394 25,000  Level Washington Center
01:03PM 35.6878 -77.7658 17° North 342 394 25,000  Level Washington Center
01:04PM 35.7844 -77.7275 18° North 342 394 25,000  Level Washington Center
01:05PM 35.8789 -77.6917 17° North 347 399 25,000  Level Washington Center
01:06PM 35.9733 -77.6556 17° North 347 399 25,000  Level Washington Center
01:07PM 36.0658 -77.6169 19° North 347 399 25,000  Level Washington Center
01:08PM 36.1583 -77.5831 16° North 347 399 25,000  Level Washington Center
01:09PM 36.2528 -77.5469 17° North 342 394 25,000  Level Washington Center
01:10PM 36.3431 -77.5106 18° North 342 394 25,000  Level Washington Center
01:11PM 36.4417 -77.4717 18° North 342 394 25,000  Level Washington Center
01:12PM 36.5322 -77.4325 19° North 336 387 25,000  Level Washington Center
01:13PM 36.6222 -77.4008 16° North 336 387 25,000  Level Washington Center
01:14PM 36.7125 -77.3642 18° North 336 387 25,000  Level Washington Center
01:15PM 36.8050 -77.3272 18° North 341 392 25,000  Level Washington Center
01:16PM 36.8950 -77.2906 18° North 341 392 25,000  Level Washington Center
01:17PM 36.9853 -77.2561 17° North 341 392 25,000  Level Washington Center
01:18PM 37.0756 -77.2189 18° North 341 392 25,000  Level Washington Center
01:19PM 37.1658 -77.1817 18° North 341 392 25,000  Level Washington Center
01:20PM 37.2558 -77.1497 16° North 341 392 25,000  Level Washington Center
01:21PM 37.3439 -77.1069 21° North 336 387 25,000  Level Washington Center
01:22PM 37.4344 -77.0564 24° Northeast 341 392 25,000  Level Washington Center
01:23PM 37.5142 -77.0083 26° Northeast 341 392 25,000 -240 Level Washington Center
01:24PM 37.6022 -76.9575 25° Northeast 346 398 24,600 -660 Descending Washington Center
01:25PM 37.6947 -76.9014 26° Northeast 346 398 23,700 -960 Descending Washington Center
01:26PM 37.7869 -76.8478 25° Northeast 352 405 22,700 -1,020 Descending Washington Center
01:27PM 37.8794 -76.7942 25° Northeast 358 412 21,700 -1,020 Descending Washington Center
01:28PM 37.9739 -76.7375 25° Northeast 364 419 20,700 -1,140 Descending Washington Center
01:29PM 38.0767 -76.6758 25° Northeast 369 425 19,500 -1,140 Descending Washington Center
01:30PM 38.1667 -76.6111 29° Northeast 364 419 18,500 -1,020 Descending Washington Center
01:31PM 38.2569 -76.5489 28° Northeast 364 419 17,500 -960 Descending Washington Center
01:32PM 38.3472 -76.4892 27° Northeast 364 419 16,600 -1,020 Descending Washington Center
01:33PM 38.4372 -76.4239 30° Northeast 369 425 15,600 -1,020 Descending Washington Center
01:34PM 38.5253 -76.3614 29° Northeast 369 425 14,600 -1,020 Descending Washington Center
01:35PM 38.6089 -76.3036 28° Northeast 350 403 13,600 -840 Descending Washington Center
01:36PM 38.6989 -76.2753 14° North 337 388 13,000 -300 Descending Washington Center
01:37PM 38.7822 -76.2519 12° North 327 376 13,000  Level Washington Center
01:38PM 38.8825 -76.2211 13° North 333 383 13,000 -120 Level Washington Center
01:39PM 38.9639 -76.1950 14° North 333 383 12,800 -540 Descending Washington Center
01:40PM 39.0725 -76.1583 15° North 347 399 12,000 -780 Descending Washington Center
01:41PM 39.1664 -76.1297 13° North 352 405 11,300 -540 Descending Washington Center
01:42PM 39.2583 -76.0956 16° North 353 406 11,000 -120 Descending Washington Center
01:44PM 39.4000 -75.9333 41° Northeast 338 389 11,000  Level Philadelphia TRACON
01:45PM 39.4667 -75.8500 44° Northeast 339 390 11,000  Level Philadelphia TRACON
01:46PM 39.5333 -75.7500 49° Northeast 339 390 11,000 -60 Level Philadelphia TRACON
01:47PM 39.5833 -75.6333 61° Northeast 339 390 10,900 -420 Descending Philadelphia TRACON
01:48PM 39.6167 -75.5333 67° East 347 399 10,300 -480 Descending Philadelphia TRACON
01:49PM 39.6667 -75.4333 57° Northeast 343 395 10,000 -180 Descending Philadelphia TRACON
01:50PM 39.7167 -75.3167 61° Northeast 343 395 10,000  Level Philadelphia TRACON
01:51PM 39.7667 -75.2167 57° Northeast 342 394 10,000  Level Philadelphia TRACON
01:52PM 39.8000 -75.1167 67° East 342 394 10,000  Level Philadelphia TRACON
01:53PM 39.8500 -75.0000 61° Northeast 341 392 10,000 -540 Level Philadelphia TRACON
01:54PM 39.9167 -74.9000 49° Northeast 300 345 8,900 -1,320 Descending Philadelphia TRACON
01:55PM 39.9667 -74.8333 46° Northeast 296 341 7,400 -1,080 Descending Philadelphia TRACON
01:56PM 40.0167 -74.7667 46° Northeast 297 342 7,000 -240 Descending New York TRACON
01:57PM 40.0667 -74.6833 52° Northeast 290 334 7,000  Level New York TRACON
01:58PM 40.1167 -74.6167 46° Northeast 292 336 7,000  Level New York TRACON
01:59PM 40.1833 -74.5333 44° Northeast 294 338 7,000  Level New York TRACON
02:00PM 40.2333 -74.4667 45° Northeast 292 336 7,000 -240 Level New York TRACON
02:01PM 40.3167 -74.5000 343° North 272 313 6,600 -480 Descending New York TRACON
02:02PM 40.4000 -74.5333 343° North 267 307 6,000 -300 Descending New York TRACON
02:03PM 40.4667 -74.5667 339° North 273 314 6,000  Level New York TRACON
02:04PM 40.5333 -74.6000 339° North 275 316 6,000  Level New York TRACON
02:05PM 40.6167 -74.6333 343° North 274 315 6,000  Level New York TRACON
02:06PM 40.6833 -74.6500 349° North 275 316 6,000  Level New York TRACON
02:07PM 40.7500 -74.6833 339° North 278 320 6,000  Level New York TRACON
02:08PM 40.8333 -74.6333 24° Northeast 292 336 6,000  Level New York TRACON
02:09PM 40.9000 -74.5833 30° Northeast 293 337 6,000  Level New York TRACON
02:10PM 40.9667 -74.5333 30° Northeast 299 344 6,000 -420 Level New York TRACON
02:11PM 41.0000 -74.4333 66° East 289 333 5,200 -540 Descending New York TRACON
02:12PM 41.0167 -74.3500 75° East 288 331 5,000 -360 Descending New York TRACON
02:13PM 40.9833 -74.2500 114° Southeast 261 300 4,600 -540 Descending New York TRACON
02:14PM 40.9333 -74.1833 135° Southeast 253 291 4,000 -300 Descending New York TRACON
02:15PM 40.9000 -74.1167 123° Southeast 211 243 4,000 -240 Level New York TRACON
02:16PM 40.8500 -74.0667 143° Southeast 179 206 3,500 -720 Descending New York TRACON
02:17PM 40.8167 -74.0667 180° South 174 200 2,600 -720 Descending New York TRACON
02:18PM 40.7833 -74.1167 229° Southwest 168 193 2,000 -780 Descending New York TRACON
02:19PM 40.7500 -74.1333 201° Southwest 127 146 1,100 -1,020 Descending New York TRACON